Time;durP1;ratioP1;P1;durP2;ratioP2;P2;SDS_P1;SDS_P2;PMS_P1;PMS_P2;Temp;Humidity;BMP_temperature;BMP_pressure;BME280_temperature;BME280_humidity;BME280_pressure;Samples;Min_cycle;Max_cycle;Signal;HPM_P1;HPM_P2
2022/01/30 00:02:19;;;;;;;0.95;0.70;;;;;;;;;;5102185;28;20439;-68
2022/01/30 00:04:46;;;;;;;0.55;0.55;;;;;;;;;;5101929;28;20200;-68
2022/01/30 00:07:12;;;;;;;0.68;0.68;;;;;;;;;;5101368;28;20245;-68
2022/01/30 00:09:39;;;;;;;0.70;0.70;;;;;;;;;;5102235;28;20195;-67
2022/01/30 00:12:07;;;;;;;0.40;0.40;;;;;;;;;;5101733;28;20202;-68
2022/01/30 00:14:37;;;;;;;0.50;0.50;;;;;;;;;;5101922;28;20202;-68
2022/01/30 00:17:09;;;;;;;0.30;0.30;;;;;;;;;;5101872;28;20195;-68
2022/01/30 00:19:40;;;;;;;0.60;0.60;;;;;;;;;;5101823;28;20503;-68
2022/01/30 00:22:17;;;;;;;0.50;0.50;;;;;;;;;;5102147;28;20420;-67
2022/01/30 00:24:50;;;;;;;0.40;0.40;;;;;;;;;;5101987;28;20196;-68
2022/01/30 00:27:21;;;;;;;0.55;0.55;;;;;;;;;;5103092;28;20262;-68
2022/01/30 00:29:48;;;;;;;0.77;0.77;;;;;;;;;;5105788;28;20227;-68
2022/01/30 00:32:14;;;;;;;0.60;0.60;;;;;;;;;;5106093;28;20264;-68
2022/01/30 00:34:41;;;;;;;0.45;0.45;;;;;;;;;;5105427;28;20605;-67
2022/01/30 00:37:07;;;;;;;0.82;0.82;;;;;;;;;;5105512;28;20203;-68
2022/01/30 00:39:34;;;;;;;1.17;1.02;;;;;;;;;;5105552;28;20196;-68
2022/01/30 00:42:00;;;;;;;0.70;0.70;;;;;;;;;;5106070;28;20220;-67
2022/01/30 00:44:28;;;;;;;0.90;0.90;;;;;;;;;;5105237;28;20199;-68
2022/01/30 00:46:55;;;;;;;0.77;0.77;;;;;;;;;;5105752;28;20196;-68
2022/01/30 00:49:22;;;;;;;0.60;0.60;;;;;;;;;;5105650;28;20196;-68
2022/01/30 00:51:48;;;;;;;0.68;0.68;;;;;;;;;;5105788;28;20199;-68
2022/01/30 00:54:15;;;;;;;0.60;0.60;;;;;;;;;;5105536;28;20218;-67
2022/01/30 00:56:41;;;;;;;0.73;0.73;;;;;;;;;;5105196;28;20364;-68
2022/01/30 00:59:07;;;;;;;0.70;0.70;;;;;;;;;;5105140;28;20195;-68
2022/01/30 01:01:35;;;;;;;0.63;0.63;;;;;;;;;;5105286;28;20558;-67
2022/01/30 01:04:02;;;;;;;0.60;0.60;;;;;;;;;;5105277;28;20219;-68
2022/01/30 01:06:28;;;;;;;1.05;1.05;;;;;;;;;;5104714;28;20215;-67
2022/01/30 01:08:58;;;;;;;0.82;0.70;;;;;;;;;;5105309;28;20273;-68
2022/01/30 01:11:54;;;;;;;0.60;0.60;;;;;;;;;;5104986;28;20215;-68
2022/01/30 01:25:13;;;;;;;0.82;0.70;;;;;;;;;;5104990;28;20259;-68
2022/01/30 01:27:39;;;;;;;0.82;0.82;;;;;;;;;;5104247;28;20199;-68
2022/01/30 01:30:06;;;;;;;1.30;0.85;;;;;;;;;;5104497;28;20534;-68
2022/01/30 01:32:34;;;;;;;0.80;0.80;;;;;;;;;;5104653;28;20257;-68
2022/01/30 01:35:01;;;;;;;1.35;0.70;;;;;;;;;;5104605;28;20196;-68
2022/01/30 01:37:27;;;;;;;0.80;0.80;;;;;;;;;;5104374;28;20223;-68
2022/01/30 01:39:54;;;;;;;0.90;0.90;;;;;;;;;;5103553;28;20196;-68
2022/01/30 01:42:21;;;;;;;0.90;0.90;;;;;;;;;;5104541;28;20220;-68
2022/01/30 01:44:50;;;;;;;0.52;0.52;;;;;;;;;;5104184;28;20214;-68
2022/01/30 01:47:20;;;;;;;0.75;0.75;;;;;;;;;;5104506;28;20246;-68
2022/01/30 01:49:50;;;;;;;0.80;0.80;;;;;;;;;;5104383;28;20241;-68
2022/01/30 01:52:22;;;;;;;0.68;0.68;;;;;;;;;;5104437;28;20514;-68
2022/01/30 01:54:49;;;;;;;0.82;0.82;;;;;;;;;;5104274;28;20203;-68
2022/01/30 01:57:15;;;;;;;1.75;1.00;;;;;;;;;;5104150;28;20204;-68
2022/01/30 01:59:42;;;;;;;0.90;0.90;;;;;;;;;;5104142;28;20196;-68
2022/01/30 02:02:09;;;;;;;1.30;1.20;;;;;;;;;;5104145;28;20542;-68
2022/01/30 02:04:37;;;;;;;0.90;0.90;;;;;;;;;;5104146;28;20418;-68
2022/01/30 02:07:30;;;;;;;0.90;0.88;;;;;;;;;;5103978;28;20261;-68
2022/01/30 02:09:59;;;;;;;2.58;0.90;;;;;;;;;;5103790;28;20199;-68
2022/01/30 02:12:32;;;;;;;0.68;0.68;;;;;;;;;;5103738;28;20255;-68
2022/01/30 02:15:13;;;;;;;0.80;0.80;;;;;;;;;;5104091;28;20437;-68
2022/01/30 02:25:58;;;;;;;1.45;1.15;;;;;;;;;;5103532;28;20210;-68
2022/01/30 02:28:26;;;;;;;1.15;1.05;;;;;;;;;;5103451;28;20188;-68
2022/01/30 02:30:58;;;;;;;1.00;0.98;;;;;;;;;;5103222;28;20423;-68
2022/01/30 02:33:25;;;;;;;1.10;1.10;;;;;;;;;;5103637;28;20199;-68
2022/01/30 02:35:51;;;;;;;1.00;1.00;;;;;;;;;;5103632;28;20506;-68
2022/01/30 02:38:20;;;;;;;1.13;1.13;;;;;;;;;;5103197;28;20184;-68
2022/01/30 02:40:48;;;;;;;0.95;0.95;;;;;;;;;;5102714;28;20223;-68
2022/01/30 02:43:19;;;;;;;0.85;0.85;;;;;;;;;;5103072;28;20529;-67
2022/01/30 02:45:51;;;;;;;1.58;1.00;;;;;;;;;;5103273;28;20412;-68
2022/01/30 02:48:29;;;;;;;1.65;0.75;;;;;;;;;;5103339;28;20503;-68
2022/01/30 02:51:11;;;;;;;0.90;0.90;;;;;;;;;;5103056;28;20223;-68
2022/01/30 02:53:42;;;;;;;0.90;0.90;;;;;;;;;;5103311;28;20199;-68
2022/01/30 02:56:09;;;;;;;0.90;0.90;;;;;;;;;;5103039;28;20414;-68
2022/01/30 02:58:36;;;;;;;1.10;1.10;;;;;;;;;;5102059;28;20192;-68
2022/01/30 03:01:02;;;;;;;1.02;1.02;;;;;;;;;;5102856;28;20416;-68
2022/01/30 03:03:29;;;;;;;1.00;1.00;;;;;;;;;;5103192;28;20191;-68
2022/01/30 03:05:55;;;;;;;1.08;1.00;;;;;;;;;;5102709;28;20215;-68
2022/01/30 03:08:22;;;;;;;1.20;1.20;;;;;;;;;;5102659;28;20495;-68
2022/01/30 03:10:49;;;;;;;1.02;1.02;;;;;;;;;;5102959;28;20513;-68
2022/01/30 03:13:16;;;;;;;1.25;1.00;;;;;;;;;;5102687;28;20203;-68
2022/01/30 03:15:42;;;;;;;1.00;1.00;;;;;;;;;;5102524;28;20192;-68
2022/01/30 03:18:09;;;;;;;0.80;0.80;;;;;;;;;;5102549;28;20203;-68
2022/01/30 03:20:35;;;;;;;1.13;1.13;;;;;;;;;;5102665;28;20203;-68
2022/01/30 03:23:02;;;;;;;1.02;1.02;;;;;;;;;;5102808;28;20404;-68
2022/01/30 03:25:31;;;;;;;1.05;0.82;;;;;;;;;;5102924;28;20374;-68
2022/01/30 03:28:01;;;;;;;0.90;0.90;;;;;;;;;;5102127;28;20266;-68
2022/01/30 03:30:30;;;;;;;1.00;0.90;;;;;;;;;;5102331;28;20257;-68
2022/01/30 03:32:57;;;;;;;1.00;1.00;;;;;;;;;;5102569;28;20257;-68
2022/01/30 03:35:24;;;;;;;1.10;1.10;;;;;;;;;;5102383;28;20188;-68
2022/01/30 03:37:50;;;;;;;0.90;0.90;;;;;;;;;;5102120;28;20202;-68
2022/01/30 03:40:17;;;;;;;0.80;0.80;;;;;;;;;;5102440;28;20386;-68
2022/01/30 03:42:43;;;;;;;0.90;0.90;;;;;;;;;;5102264;28;20387;-68
2022/01/30 03:45:11;;;;;;;0.80;0.80;;;;;;;;;;5102033;28;20191;-68
2022/01/30 03:47:38;;;;;;;0.90;0.90;;;;;;;;;;5102041;28;20203;-68
2022/01/30 03:50:05;;;;;;;0.88;0.88;;;;;;;;;;5102393;28;20195;-68
2022/01/30 03:52:31;;;;;;;0.95;0.80;;;;;;;;;;5102351;28;20192;-68
2022/01/30 03:54:57;;;;;;;0.80;0.80;;;;;;;;;;5102015;28;20248;-68
2022/01/30 03:57:24;;;;;;;1.02;1.02;;;;;;;;;;5102205;28;20246;-68
2022/01/30 03:59:50;;;;;;;0.70;0.70;;;;;;;;;;5102325;28;20195;-68
2022/01/30 04:02:18;;;;;;;0.80;0.80;;;;;;;;;;5101388;28;20587;-68
2022/01/30 04:04:44;;;;;;;0.80;0.80;;;;;;;;;;5102155;28;20370;-68
2022/01/30 04:07:11;;;;;;;0.75;0.75;;;;;;;;;;5101877;28;20203;-68
2022/01/30 04:09:38;;;;;;;0.70;0.70;;;;;;;;;;5101863;28;20196;-68
2022/01/30 04:12:05;;;;;;;0.70;0.70;;;;;;;;;;5101867;28;20211;-68
2022/01/30 04:14:32;;;;;;;1.00;0.90;;;;;;;;;;5101955;28;20199;-68
2022/01/30 04:16:58;;;;;;;0.88;0.80;;;;;;;;;;5101880;28;20199;-68
2022/01/30 04:19:26;;;;;;;0.80;0.80;;;;;;;;;;5101954;28;20195;-68
2022/01/30 04:21:53;;;;;;;2.05;0.75;;;;;;;;;;5101899;28;20411;-68
2022/01/30 04:24:19;;;;;;;0.90;0.90;;;;;;;;;;5101700;28;20191;-68
2022/01/30 04:26:45;;;;;;;1.15;1.15;;;;;;;;;;5101605;28;20395;-68
2022/01/30 04:29:12;;;;;;;2.65;0.93;;;;;;;;;;5101771;28;20212;-68
2022/01/30 04:31:39;;;;;;;1.05;1.05;;;;;;;;;;5101793;28;20199;-68
2022/01/30 04:34:06;;;;;;;1.30;1.20;;;;;;;;;;5101515;28;20188;-68
2022/01/30 04:36:39;;;;;;;1.00;1.00;;;;;;;;;;5101575;28;20196;-68
2022/01/30 04:39:14;;;;;;;1.33;1.10;;;;;;;;;;5101458;28;20195;-68
2022/01/30 04:42:00;;;;;;;1.27;1.00;;;;;;;;;;5101877;28;20282;-68
2022/01/30 04:53:11;;;;;;;0.95;0.95;;;;;;;;;;5039297;28;20432;-68
2022/01/30 04:58:28;;;;;;;3.35;1.17;;;;;;;;;;5095898;28;20374;-68
2022/01/30 05:01:06;;;;;;;1.40;1.17;;;;;;;;;;5101464;28;20223;-68
2022/01/30 05:03:55;;;;;;;2.35;1.33;;;;;;;;;;5101457;28;20195;-68
2022/01/30 05:06:31;;;;;;;6.45;1.50;;;;;;;;;;5101550;28;20212;-68
2022/01/30 05:08:59;;;;;;;4.50;2.22;;;;;;;;;;5101491;28;20415;-68
2022/01/30 05:11:26;;;;;;;5.63;2.20;;;;;;;;;;5101438;28;20199;-68
2022/01/30 05:13:53;;;;;;;4.85;2.65;;;;;;;;;;5103423;28;20394;-68
2022/01/30 05:16:22;;;;;;;6.15;2.13;;;;;;;;;;5104976;28;20223;-68
2022/01/30 05:18:49;;;;;;;8.55;2.35;;;;;;;;;;5104871;28;20227;-68
2022/01/30 05:21:16;;;;;;;9.07;2.17;;;;;;;;;;5105105;28;20204;-68
2022/01/30 05:23:42;;;;;;;9.50;3.00;;;;;;;;;;5104869;28;20399;-68
2022/01/30 05:26:11;;;;;;;10.60;2.67;;;;;;;;;;5105010;28;20395;-68
2022/01/30 05:28:37;;;;;;;8.32;2.72;;;;;;;;;;5104626;28;20406;-68
2022/01/30 05:31:04;;;;;;;9.52;2.40;;;;;;;;;;5104663;28;20203;-68
2022/01/30 05:33:31;;;;;;;6.50;3.05;;;;;;;;;;5104922;28;20203;-68
2022/01/30 05:35:57;;;;;;;7.95;2.40;;;;;;;;;;5104409;28;20204;-68
2022/01/30 05:38:24;;;;;;;4.78;2.05;;;;;;;;;;5104617;28;20219;-68
2022/01/30 05:40:51;;;;;;;8.77;2.40;;;;;;;;;;5104664;28;20263;-68
2022/01/30 05:43:19;;;;;;;11.43;2.58;;;;;;;;;;5104548;28;20241;-68
2022/01/30 05:45:51;;;;;;;8.95;2.65;;;;;;;;;;5104411;28;20202;-67
2022/01/30 05:48:17;;;;;;;12.57;3.10;;;;;;;;;;5104286;28;20196;-68
2022/01/30 05:50:44;;;;;;;13.25;2.67;;;;;;;;;;5104647;28;20196;-68
2022/01/30 05:53:10;;;;;;;9.38;2.70;;;;;;;;;;5104445;28;20191;-68
2022/01/30 05:55:37;;;;;;;9.15;2.42;;;;;;;;;;5104170;28;20196;-67
2022/01/30 05:58:03;;;;;;;9.02;2.63;;;;;;;;;;5104001;28;20518;-67
2022/01/30 06:00:31;;;;;;;8.95;2.88;;;;;;;;;;5104211;28;20555;-68
2022/01/30 06:02:58;;;;;;;16.17;3.17;;;;;;;;;;5104109;28;20212;-68
2022/01/30 06:05:25;;;;;;;5.80;2.65;;;;;;;;;;5104054;28;20425;-68
2022/01/30 06:07:53;;;;;;;9.15;2.50;;;;;;;;;;5104363;28;20506;-68
2022/01/30 06:10:21;;;;;;;6.30;2.55;;;;;;;;;;5104167;28;20195;-67
2022/01/30 06:12:48;;;;;;;16.80;3.60;;;;;;;;;;5102967;28;20207;-68
2022/01/30 06:15:14;;;;;;;15.20;2.88;;;;;;;;;;5103907;28;20204;-67
2022/01/30 06:17:43;;;;;;;6.25;2.28;;;;;;;;;;5103848;28;20196;-68
2022/01/30 06:20:09;;;;;;;13.88;2.92;;;;;;;;;;5103927;28;20211;-68
2022/01/30 06:22:36;;;;;;;10.00;3.30;;;;;;;;;;5103600;28;20238;-68
2022/01/30 06:25:02;;;;;;;12.63;3.13;;;;;;;;;;5102834;28;20195;-68
2022/01/30 06:27:29;;;;;;;10.95;2.95;;;;;;;;;;5103229;28;20203;-68
2022/01/30 06:29:55;;;;;;;11.68;3.17;;;;;;;;;;5103712;28;20215;-68
2022/01/30 06:32:22;;;;;;;7.68;2.72;;;;;;;;;;5103412;28;20201;-68
2022/01/30 06:34:49;;;;;;;8.80;2.35;;;;;;;;;;5103420;28;20529;-68
2022/01/30 06:37:16;;;;;;;10.52;3.53;;;;;;;;;;5103377;28;20403;-68
2022/01/30 06:39:42;;;;;;;9.55;2.33;;;;;;;;;;5103472;28;20526;-68
2022/01/30 06:42:09;;;;;;;5.95;2.25;;;;;;;;;;5103164;28;20212;-68
2022/01/30 06:44:35;;;;;;;9.43;3.10;;;;;;;;;;5103429;28;20396;-68
2022/01/30 06:47:02;;;;;;;7.18;2.55;;;;;;;;;;5103106;28;20196;-68
2022/01/30 06:49:28;;;;;;;11.02;2.72;;;;;;;;;;5103356;28;20196;-68
2022/01/30 06:51:56;;;;;;;12.15;2.65;;;;;;;;;;5103129;28;20188;-68
2022/01/30 06:54:22;;;;;;;10.48;3.22;;;;;;;;;;5103033;28;20203;-68
2022/01/30 06:56:49;;;;;;;5.15;2.47;;;;;;;;;;5103158;28;20248;-68
2022/01/30 06:59:15;;;;;;;11.73;2.90;;;;;;;;;;5103246;28;20537;-68
2022/01/30 07:01:42;;;;;;;10.75;2.92;;;;;;;;;;5102654;28;20206;-68
2022/01/30 07:04:08;;;;;;;12.80;2.78;;;;;;;;;;5103047;28;20494;-68
2022/01/30 07:06:34;;;;;;;12.40;2.88;;;;;;;;;;5102687;28;20215;-68
2022/01/30 07:09:02;;;;;;;9.30;2.38;;;;;;;;;;5102898;28;20639;-68
2022/01/30 07:11:29;;;;;;;10.07;2.30;;;;;;;;;;5102667;28;20192;-68
2022/01/30 07:13:55;;;;;;;10.13;2.53;;;;;;;;;;5102729;28;20376;-68
2022/01/30 07:16:21;;;;;;;7.20;2.55;;;;;;;;;;5103033;28;20256;-68
2022/01/30 07:18:48;;;;;;;10.68;3.00;;;;;;;;;;5102690;28;20200;-68
2022/01/30 07:21:14;;;;;;;8.32;2.30;;;;;;;;;;5102304;28;20188;-68
2022/01/30 07:23:41;;;;;;;6.30;2.40;;;;;;;;;;5102521;28;20219;-68
2022/01/30 07:26:09;;;;;;;14.90;3.15;;;;;;;;;;5102714;28;20203;-68
2022/01/30 07:28:36;;;;;;;14.32;3.58;;;;;;;;;;5102220;28;20203;-68
2022/01/30 07:31:02;;;;;;;11.88;2.88;;;;;;;;;;5102210;28;20226;-68
2022/01/30 07:33:29;;;;;;;8.13;2.90;;;;;;;;;;5102594;28;20196;-68
2022/01/30 07:35:56;;;;;;;10.90;3.63;;;;;;;;;;5102473;28;20248;-68
2022/01/30 07:38:23;;;;;;;7.35;2.72;;;;;;;;;;5102179;28;20400;-68
2022/01/30 07:40:50;;;;;;;8.68;2.75;;;;;;;;;;5102398;28;20196;-60
2022/01/30 07:43:17;;;;;;;7.93;2.83;;;;;;;;;;5102448;28;20407;-59
2022/01/30 07:45:44;;;;;;;13.77;3.15;;;;;;;;;;5102452;28;20195;-59
2022/01/30 07:48:10;;;;;;;10.73;2.88;;;;;;;;;;5101900;28;20241;-60
2022/01/30 07:50:37;;;;;;;14.13;3.33;;;;;;;;;;5102203;28;20503;-60
2022/01/30 07:53:03;;;;;;;8.32;2.83;;;;;;;;;;5102217;28;20532;-60
2022/01/30 07:55:30;;;;;;;8.18;2.85;;;;;;;;;;5102161;28;20195;-61
2022/01/30 07:57:56;;;;;;;12.88;3.10;;;;;;;;;;5101968;28;20196;-61
2022/01/30 08:00:24;;;;;;;13.93;2.67;;;;;;;;;;5102204;28;20195;-60
2022/01/30 08:02:50;;;;;;;12.95;3.67;;;;;;;;;;5101845;28;20212;-59
2022/01/30 08:05:17;;;;;;;13.77;4.93;;;;;;;;;;5101724;28;20286;-61
2022/01/30 08:07:43;;;;;;;22.23;5.07;;;;;;;;;;5102251;28;20514;-61
2022/01/30 08:10:10;;;;;;;15.82;4.22;;;;;;;;;;5101926;28;20196;-61
2022/01/30 08:12:38;;;;;;;16.10;4.78;;;;;;;;;;5102121;28;20203;-59
2022/01/30 08:15:05;;;;;;;12.32;3.20;;;;;;;;;;5102012;28;20227;-61
2022/01/30 08:17:35;;;;;;;13.20;4.00;;;;;;;;;;5101733;28;20203;-60
2022/01/30 08:20:02;;;;;;;15.25;4.30;;;;;;;;;;5101837;28;20198;-60
2022/01/30 08:22:30;;;;;;;13.52;4.18;;;;;;;;;;5101827;28;20251;-59
2022/01/30 08:24:57;;;;;;;13.65;3.55;;;;;;;;;;5101882;28;20210;-61
2022/01/30 08:27:23;;;;;;;16.83;3.33;;;;;;;;;;5101397;28;20188;-61
2022/01/30 08:29:50;;;;;;;11.05;3.05;;;;;;;;;;5101831;28;20371;-61
2022/01/30 08:32:16;;;;;;;11.35;3.15;;;;;;;;;;5101576;28;20188;-60
2022/01/30 08:34:44;;;;;;;10.45;3.05;;;;;;;;;;5101522;28;20583;-60
2022/01/30 08:37:10;;;;;;;16.20;3.35;;;;;;;;;;5101658;28;20196;-59
2022/01/30 08:39:37;;;;;;;10.27;2.65;;;;;;;;;;5101891;28;20196;-60
2022/01/30 08:42:04;;;;;;;12.23;2.97;;;;;;;;;;5101737;28;20248;-62
2022/01/30 08:44:30;;;;;;;13.73;3.50;;;;;;;;;;5101599;28;20191;-61
2022/01/30 08:46:56;;;;;;;14.88;4.03;;;;;;;;;;5101661;28;20241;-62
2022/01/30 08:49:23;;;;;;;12.82;3.30;;;;;;;;;;5104732;28;20196;-61
2022/01/30 08:51:50;;;;;;;12.40;2.45;;;;;;;;;;5105850;28;20336;-62
2022/01/30 08:54:18;;;;;;;16.95;3.22;;;;;;;;;;5105217;28;20249;-60
2022/01/30 08:56:44;;;;;;;15.32;3.67;;;;;;;;;;5105325;28;20230;-60
2022/01/30 08:59:10;;;;;;;11.98;2.67;;;;;;;;;;5105290;28;20202;-61
2022/01/30 09:01:37;;;;;;;10.13;2.65;;;;;;;;;;5105262;28;20196;-62
2022/01/30 09:04:03;;;;;;;12.30;2.85;;;;;;;;;;5105035;28;20219;-62
2022/01/30 09:06:30;;;;;;;8.65;2.47;;;;;;;;;;5105308;28;20439;-62
2022/01/30 09:08:59;;;;;;;11.82;3.00;;;;;;;;;;5104772;28;20507;-62
2022/01/30 09:11:26;;;;;;;12.10;2.83;;;;;;;;;;5104719;28;20196;-62
2022/01/30 09:13:52;;;;;;;13.43;3.05;;;;;;;;;;5104397;28;20192;-62
2022/01/30 09:16:19;;;;;;;12.70;3.03;;;;;;;;;;5104338;28;20188;-63
2022/01/30 09:18:45;;;;;;;12.10;2.75;;;;;;;;;;5104441;28;20196;-62
2022/01/30 09:21:12;;;;;;;14.95;3.10;;;;;;;;;;5104601;28;20196;-63
2022/01/30 09:23:39;;;;;;;10.73;2.70;;;;;;;;;;5104043;28;20216;-63
2022/01/30 09:26:06;;;;;;;13.30;2.80;;;;;;;;;;5104456;28;20468;-63
2022/01/30 09:28:33;;;;;;;12.07;2.65;;;;;;;;;;5103962;28;20226;-62
2022/01/30 09:30:59;;;;;;;24.80;4.13;;;;;;;;;;5104148;28;20219;-63
2022/01/30 09:33:26;;;;;;;15.63;2.92;;;;;;;;;;5104517;28;20199;-62
2022/01/30 09:35:52;;;;;;;16.73;2.70;;;;;;;;;;5103957;28;20556;-62
2022/01/30 09:38:18;;;;;;;13.57;2.88;;;;;;;;;;5103876;28;20271;-62
2022/01/30 09:40:45;;;;;;;9.68;2.92;;;;;;;;;;5104127;28;20218;-62
2022/01/30 09:43:13;;;;;;;12.75;2.90;;;;;;;;;;5103860;28;20283;-63
2022/01/30 09:45:39;;;;;;;11.55;2.78;;;;;;;;;;5103711;28;20195;-61
2022/01/30 09:48:06;;;;;;;17.67;2.83;;;;;;;;;;5103994;28;20377;-63
2022/01/30 09:50:33;;;;;;;13.63;2.92;;;;;;;;;;5104162;28;20196;-63
2022/01/30 09:53:00;;;;;;;16.77;2.88;;;;;;;;;;5104002;28;20263;-63
2022/01/30 09:55:26;;;;;;;7.47;2.80;;;;;;;;;;5103713;28;20475;-63
2022/01/30 09:57:53;;;;;;;10.63;3.13;;;;;;;;;;5103616;28;20249;-62
2022/01/30 10:00:21;;;;;;;13.43;2.58;;;;;;;;;;5102805;28;20521;-62
2022/01/30 10:02:48;;;;;;;16.10;3.20;;;;;;;;;;5103852;28;20634;-62
2022/01/30 10:05:16;;;;;;;15.00;2.95;;;;;;;;;;5103288;28;20215;-63
2022/01/30 10:07:44;;;;;;;18.25;3.33;;;;;;;;;;5103353;28;20464;-63
2022/01/30 10:10:11;;;;;;;17.23;3.58;;;;;;;;;;5103417;28;20203;-63
2022/01/30 10:12:57;;;;;;;14.10;3.22;;;;;;;;;;5103694;28;20402;-61
2022/01/30 10:15:25;;;;;;;15.43;3.47;;;;;;;;;;5103329;28;20195;-63
2022/01/30 10:17:52;;;;;;;13.57;3.78;;;;;;;;;;5103247;28;20202;-62
2022/01/30 10:20:19;;;;;;;16.27;3.40;;;;;;;;;;5103353;28;20534;-63
2022/01/30 10:22:50;;;;;;;11.80;2.72;;;;;;;;;;5103048;28;20203;-63
2022/01/30 10:25:23;;;;;;;16.60;4.72;;;;;;;;;;5102919;28;20210;-62
2022/01/30 10:28:04;;;;;;;15.38;3.72;;;;;;;;;;5102929;28;20210;-61
2022/01/30 10:30:39;;;;;;;11.13;2.80;;;;;;;;;;5102998;28;20215;-62
2022/01/30 10:33:08;;;;;;;16.15;3.90;;;;;;;;;;5103100;28;20198;-63
2022/01/30 10:35:45;;;;;;;14.45;3.15;;;;;;;;;;5103119;28;20498;-63
2022/01/30 10:38:18;;;;;;;10.82;2.90;;;;;;;;;;5102867;28;20249;-62
2022/01/30 10:40:51;;;;;;;17.02;3.42;;;;;;;;;;5102784;28;20237;-63
2022/01/30 10:43:18;;;;;;;16.88;2.83;;;;;;;;;;5104273;28;20265;-61
2022/01/30 10:45:45;;;;;;;12.13;3.47;;;;;;;;;;5102590;28;20195;-61
2022/01/30 10:48:13;;;;;;;15.15;3.28;;;;;;;;;;5104624;28;20203;-62
2022/01/30 10:50:41;;;;;;;13.43;2.83;;;;;;;;;;5103015;28;20266;-62
2022/01/30 10:53:16;;;;;;;15.88;3.10;;;;;;;;;;5102805;28;20196;-61
2022/01/30 10:55:44;;;;;;;15.13;2.88;;;;;;;;;;5102455;28;20196;-60
2022/01/30 10:58:11;;;;;;;9.45;2.53;;;;;;;;;;5102898;28;20409;-62
2022/01/30 11:00:42;;;;;;;12.40;2.88;;;;;;;;;;5103438;28;20495;-62
2022/01/30 11:03:11;;;;;;;14.90;3.00;;;;;;;;;;5103256;28;20238;-62
2022/01/30 11:05:53;;;;;;;20.27;3.05;;;;;;;;;;5103041;28;20216;-62
2022/01/30 11:08:22;;;;;;;7.68;2.80;;;;;;;;;;5102925;28;20199;-62
2022/01/30 11:10:58;;;;;;;12.88;2.38;;;;;;;;;;5102815;28;20578;-61
2022/01/30 11:13:32;;;;;;;11.75;3.05;;;;;;;;;;5102843;28;20221;-62
2022/01/30 11:16:55;;;;;;;11.13;2.80;;;;;;;;;;5103188;28;20266;-61
2022/01/30 11:18:49;;;;;;;9.10;3.28;;;;;;;;;;5102591;28;20378;-62
2022/01/30 11:21:17;;;;;;;14.20;2.85;;;;;;;;;;5102697;28;20494;-62
2022/01/30 11:23:43;;;;;;;9.77;2.50;;;;;;;;;;5102703;28;20265;-62
2022/01/30 11:26:10;;;;;;;11.98;3.80;;;;;;;;;;5102713;28;20196;-61
2022/01/30 11:28:37;;;;;;;7.35;2.72;;;;;;;;;;5102344;28;20192;-62
2022/01/30 11:31:04;;;;;;;10.00;2.67;;;;;;;;;;5102568;28;20421;-62
2022/01/30 11:33:31;;;;;;;10.77;3.38;;;;;;;;;;5102236;28;20183;-60
2022/01/30 11:35:59;;;;;;;9.57;2.45;;;;;;;;;;5102451;28;20211;-61
2022/01/30 11:38:25;;;;;;;9.48;4.07;;;;;;;;;;5102393;28;20525;-62
2022/01/30 11:41:16;;;;;;;13.38;4.05;;;;;;;;;;5102440;28;20196;-62
2022/01/30 11:44:02;;;;;;;14.63;3.40;;;;;;;;;;5091572;28;20207;-60
2022/01/30 11:46:28;;;;;;;17.02;4.00;;;;;;;;;;5102009;28;20210;-62
2022/01/30 11:49:10;;;;;;;14.60;3.40;;;;;;;;;;5102561;28;20203;-60
2022/01/30 11:51:49;;;;;;;16.05;4.13;;;;;;;;;;5102332;28;20487;-60
2022/01/30 11:54:35;;;;;;;9.15;3.10;;;;;;;;;;5102107;28;20259;-61
2022/01/30 11:57:02;;;;;;;14.73;4.00;;;;;;;;;;5102106;28;20202;-61
2022/01/30 11:59:35;;;;;;;10.65;2.78;;;;;;;;;;5102231;28;20195;-62
2022/01/30 12:02:16;;;;;;;12.02;2.70;;;;;;;;;;5102052;28;20444;-60
2022/01/30 12:04:53;;;;;;;14.20;3.28;;;;;;;;;;5101247;28;20207;-61
2022/01/30 12:07:33;;;;;;;11.13;2.70;;;;;;;;;;5101853;28;20262;-62
2022/01/30 12:10:18;;;;;;;9.27;2.50;;;;;;;;;;5102176;28;20262;-61
2022/01/30 12:12:48;;;;;;;9.70;2.08;;;;;;;;;;5101868;28;20196;-62
2022/01/30 12:15:29;;;;;;;5.80;1.92;;;;;;;;;;5081782;28;20192;-61
2022/01/30 12:17:55;;;;;;;15.20;2.72;;;;;;;;;;5080802;28;20204;-62
2022/01/30 12:20:22;;;;;;;9.70;2.90;;;;;;;;;;5081891;28;20196;-62
2022/01/30 12:22:51;;;;;;;10.50;2.60;;;;;;;;;;5082645;28;20220;-62
2022/01/30 12:25:35;;;;;;;14.68;2.47;;;;;;;;;;5090794;28;20526;-62
2022/01/30 12:28:03;;;;;;;8.88;2.70;;;;;;;;;;5106166;28;20223;-62
2022/01/30 12:30:30;;;;;;;10.07;2.42;;;;;;;;;;5106205;28;20203;-62
2022/01/30 12:32:56;;;;;;;11.00;2.78;;;;;;;;;;5105689;28;20204;-62
2022/01/30 12:35:22;;;;;;;10.20;2.42;;;;;;;;;;5105374;28;20192;-62
2022/01/30 12:37:50;;;;;;;9.32;2.40;;;;;;;;;;5105475;28;20203;-61
2022/01/30 12:40:18;;;;;;;12.73;2.63;;;;;;;;;;5105535;28;20211;-62
2022/01/30 12:42:45;;;;;;;10.40;2.92;;;;;;;;;;5105821;28;20199;-62
2022/01/30 12:45:12;;;;;;;6.82;2.28;;;;;;;;;;5105739;28;20220;-62
2022/01/30 12:47:45;;;;;;;10.07;2.78;;;;;;;;;;5104756;28;20203;-62
2022/01/30 12:50:12;;;;;;;10.38;2.50;;;;;;;;;;5105800;28;20195;-62
2022/01/30 12:52:39;;;;;;;9.43;2.25;;;;;;;;;;5102349;28;20195;-61
2022/01/30 12:55:11;;;;;;;8.32;2.20;;;;;;;;;;5099274;28;20207;-60
2022/01/30 12:57:38;;;;;;;9.88;3.08;;;;;;;;;;5091095;28;20445;-60
2022/01/30 13:00:05;;;;;;;11.02;2.38;;;;;;;;;;5100104;28;20625;-61
2022/01/30 13:02:34;;;;;;;7.43;2.30;;;;;;;;;;5099947;28;20572;-62
2022/01/30 13:05:00;;;;;;;8.43;2.05;;;;;;;;;;5099088;28;20536;-62
2022/01/30 13:07:27;;;;;;;13.57;2.28;;;;;;;;;;5099535;28;20208;-61
2022/01/30 13:10:03;;;;;;;6.72;3.08;;;;;;;;;;5099493;28;20566;-61
2022/01/30 13:12:32;;;;;;;6.63;2.63;;;;;;;;;;5099954;28;20219;-60
2022/01/30 13:14:58;;;;;;;7.82;2.25;;;;;;;;;;5099257;28;20207;-61
2022/01/30 13:17:28;;;;;;;10.23;2.50;;;;;;;;;;5099648;28;20374;-61
2022/01/30 13:19:55;;;;;;;11.13;2.95;;;;;;;;;;5099457;28;20271;-62
2022/01/30 13:22:25;;;;;;;9.80;2.45;;;;;;;;;;5099863;28;20208;-62
2022/01/30 13:24:54;;;;;;;9.30;2.28;;;;;;;;;;5098274;28;20231;-62
2022/01/30 13:27:21;;;;;;;9.77;2.40;;;;;;;;;;5098938;28;20200;-62
2022/01/30 13:29:49;;;;;;;9.57;2.65;;;;;;;;;;5099066;28;20204;-59
2022/01/30 13:32:16;;;;;;;12.27;2.50;;;;;;;;;;5099632;28;20243;-61
2022/01/30 13:34:44;;;;;;;8.02;2.35;;;;;;;;;;5097937;28;20267;-61
2022/01/30 13:37:12;;;;;;;13.38;2.65;;;;;;;;;;5098436;28;20212;-61
2022/01/30 13:39:42;;;;;;;6.25;2.67;;;;;;;;;;5098686;28;20208;-59
2022/01/30 13:42:32;;;;;;;11.55;2.42;;;;;;;;;;5098846;28;20211;-61
2022/01/30 13:46:55;;;;;;;12.65;3.03;;;;;;;;;;5098124;28;20219;-60
2022/01/30 13:47:54;;;;;;;13.30;3.00;;;;;;;;;;5092186;28;20204;-61
2022/01/30 13:50:21;;;;;;;12.63;2.53;;;;;;;;;;5079248;28;20235;-61
2022/01/30 13:52:47;;;;;;;10.95;2.97;;;;;;;;;;5078716;28;20234;-59
2022/01/30 13:55:14;;;;;;;7.15;2.40;;;;;;;;;;5095068;28;20204;-61
2022/01/30 13:57:42;;;;;;;10.55;3.10;;;;;;;;;;5098716;28;20487;-61
2022/01/30 14:00:11;;;;;;;7.60;2.35;;;;;;;;;;5098715;28;20219;-60
2022/01/30 14:02:51;;;;;;;10.70;2.88;;;;;;;;;;5098804;28;20207;-59
2022/01/30 14:05:28;;;;;;;5.60;2.42;;;;;;;;;;5098224;28;20637;-60
2022/01/30 14:07:55;;;;;;;13.05;3.40;;;;;;;;;;5098824;28;20356;-61
2022/01/30 14:10:22;;;;;;;11.40;3.30;;;;;;;;;;5098527;28;20204;-60
2022/01/30 14:12:50;;;;;;;7.85;2.35;;;;;;;;;;5098624;28;20279;-61
2022/01/30 14:15:20;;;;;;;12.23;2.42;;;;;;;;;;5097998;28;20204;-61
2022/01/30 14:17:48;;;;;;;14.05;3.00;;;;;;;;;;5098390;28;20430;-60
2022/01/30 14:20:14;;;;;;;7.03;2.60;;;;;;;;;;5098352;28;20283;-61
2022/01/30 14:22:44;;;;;;;6.57;2.08;;;;;;;;;;5098468;28;20200;-61
2022/01/30 14:25:17;;;;;;;5.72;2.28;;;;;;;;;;5098097;28;20228;-61
2022/01/30 14:27:44;;;;;;;10.82;2.40;;;;;;;;;;5098277;28;20208;-60
2022/01/30 14:30:11;;;;;;;7.55;2.25;;;;;;;;;;5098251;28;20216;-61
2022/01/30 14:32:41;;;;;;;3.97;2.28;;;;;;;;;;5098177;28;20208;-61
2022/01/30 14:35:09;;;;;;;12.35;2.42;;;;;;;;;;5098713;28;20212;-61
2022/01/30 14:37:36;;;;;;;7.32;2.75;;;;;;;;;;5098693;28;20277;-61
2022/01/30 14:40:06;;;;;;;8.93;2.78;;;;;;;;;;5098090;28;20258;-61
2022/01/30 14:42:32;;;;;;;7.82;2.42;;;;;;;;;;5098385;28;20245;-60
2022/01/30 14:44:59;;;;;;;6.40;2.40;;;;;;;;;;5097503;28;20587;-59
2022/01/30 14:47:25;;;;;;;9.10;2.20;;;;;;;;;;5096749;28;20542;-60
2022/01/30 14:49:53;;;;;;;8.85;2.05;;;;;;;;;;5098731;28;20602;-61
2022/01/30 14:52:20;;;;;;;11.20;2.25;;;;;;;;;;5098142;28;20208;-60
2022/01/30 14:54:46;;;;;;;7.45;2.25;;;;;;;;;;5097395;28;20192;-61
2022/01/30 14:57:13;;;;;;;11.25;2.15;;;;;;;;;;5097734;28;20203;-59
2022/01/30 14:59:39;;;;;;;7.03;1.98;;;;;;;;;;5097906;28;20249;-59
2022/01/30 15:02:06;;;;;;;8.73;2.65;;;;;;;;;;5098006;28;20253;-59
2022/01/30 15:04:33;;;;;;;13.07;2.85;;;;;;;;;;5097217;28;20236;-61
2022/01/30 15:07:02;;;;;;;8.57;2.72;;;;;;;;;;5097445;28;20230;-60
2022/01/30 15:09:29;;;;;;;9.52;2.28;;;;;;;;;;5097658;28;20208;-60
2022/01/30 15:11:55;;;;;;;7.38;2.50;;;;;;;;;;5098051;28;20231;-61
2022/01/30 15:14:25;;;;;;;6.95;2.30;;;;;;;;;;5097050;28;20200;-61
2022/01/30 15:16:52;;;;;;;6.53;2.58;;;;;;;;;;5097143;28;20215;-61
2022/01/30 15:19:20;;;;;;;9.20;2.33;;;;;;;;;;5097442;28;20511;-61